sensor_id;sensor_type;location;lat;lon;timestamp;temperature;humidity
67165;SHT31;54093;50.014;19.984;2022-08-19T00:01:33;22.07;76.02
67165;SHT31;54093;50.014;19.984;2022-08-19T00:10:54;21.96;76.26
67165;SHT31;54093;50.014;19.984;2022-08-19T00:20:18;21.79;76.57
67165;SHT31;54093;50.014;19.984;2022-08-19T00:29:39;21.66;77.07
67165;SHT31;54093;50.014;19.984;2022-08-19T00:39:00;21.52;77.31
67165;SHT31;54093;50.014;19.984;2022-08-19T00:48:21;21.30;78.14
67165;SHT31;54093;50.014;19.984;2022-08-19T00:57:45;21.20;78.38
67165;SHT31;54093;50.014;19.984;2022-08-19T01:07:06;21.23;77.71
67165;SHT31;54093;50.014;19.984;2022-08-19T01:16:28;21.18;77.63
67165;SHT31;54093;50.014;19.984;2022-08-19T01:25:52;21.11;77.44
67165;SHT31;54093;50.014;19.984;2022-08-19T01:35:13;21.04;77.64
67165;SHT31;54093;50.014;19.984;2022-08-19T01:44:34;20.91;78.03
67165;SHT31;54093;50.014;19.984;2022-08-19T01:53:57;20.83;78.33
67165;SHT31;54093;50.014;19.984;2022-08-19T02:03:18;20.73;78.80
67165;SHT31;54093;50.014;19.984;2022-08-19T02:12:39;20.66;78.19
67165;SHT31;54093;50.014;19.984;2022-08-19T02:22:00;20.60;78.47
67165;SHT31;54093;50.014;19.984;2022-08-19T02:31:23;20.56;78.57
67165;SHT31;54093;50.014;19.984;2022-08-19T02:40:49;20.52;78.29
67165;SHT31;54093;50.014;19.984;2022-08-19T02:50:12;20.42;78.62
67165;SHT31;54093;50.014;19.984;2022-08-19T02:59:34;20.33;79.12
67165;SHT31;54093;50.014;19.984;2022-08-19T03:08:55;20.22;79.83
67165;SHT31;54093;50.014;19.984;2022-08-19T03:18:16;20.22;79.61
67165;SHT31;54093;50.014;19.984;2022-08-19T03:27:37;20.18;79.15
67165;SHT31;54093;50.014;19.984;2022-08-19T03:37:01;20.14;79.03
67165;SHT31;54093;50.014;19.984;2022-08-19T03:46:31;19.91;80.07
67165;SHT31;54093;50.014;19.984;2022-08-19T03:55:52;19.97;79.98
67165;SHT31;54093;50.014;19.984;2022-08-19T04:05:14;20.04;79.53
67165;SHT31;54093;50.014;19.984;2022-08-19T04:14:35;20.10;79.28
67165;SHT31;54093;50.014;19.984;2022-08-19T04:23:57;20.20;79.28
67165;SHT31;54093;50.014;19.984;2022-08-19T04:33:20;20.31;79.77
67165;SHT31;54093;50.014;19.984;2022-08-19T04:42:41;20.38;79.32
67165;SHT31;54093;50.014;19.984;2022-08-19T04:52:02;20.42;80.47
67165;SHT31;54093;50.014;19.984;2022-08-19T05:01:26;20.49;80.59
67165;SHT31;54093;50.014;19.984;2022-08-19T05:10:50;20.57;80.40
67165;SHT31;54093;50.014;19.984;2022-08-19T05:20:12;20.68;80.45
67165;SHT31;54093;50.014;19.984;2022-08-19T05:29:51;20.84;79.85
67165;SHT31;54093;50.014;19.984;2022-08-19T05:39:16;20.99;79.94
67165;SHT31;54093;50.014;19.984;2022-08-19T05:48:37;21.34;79.90
67165;SHT31;54093;50.014;19.984;2022-08-19T05:57:58;21.71;79.23
67165;SHT31;54093;50.014;19.984;2022-08-19T06:07:18;22.10;79.62
67165;SHT31;54093;50.014;19.984;2022-08-19T06:16:41;22.71;78.14
67165;SHT31;54093;50.014;19.984;2022-08-19T06:26:02;23.32;76.67
67165;SHT31;54093;50.014;19.984;2022-08-19T06:35:23;23.90;75.79
67165;SHT31;54093;50.014;19.984;2022-08-19T06:44:46;24.80;72.20
67165;SHT31;54093;50.014;19.984;2022-08-19T06:54:10;25.61;70.45
67165;SHT31;54093;50.014;19.984;2022-08-19T07:03:33;26.34;66.77
67165;SHT31;54093;50.014;19.984;2022-08-19T07:13:00;26.48;66.62
67165;SHT31;54093;50.014;19.984;2022-08-19T07:22:24;27.30;65.25
67165;SHT31;54093;50.014;19.984;2022-08-19T07:31:44;28.12;64.01
67165;SHT31;54093;50.014;19.984;2022-08-19T07:41:06;29.01;59.46
67165;SHT31;54093;50.014;19.984;2022-08-19T07:50:27;29.56;57.51
67165;SHT31;54093;50.014;19.984;2022-08-19T07:59:47;30.14;57.22
67165;SHT31;54093;50.014;19.984;2022-08-19T08:09:08;30.75;55.62
67165;SHT31;54093;50.014;19.984;2022-08-19T08:18:33;31.00;54.23
67165;SHT31;54093;50.014;19.984;2022-08-19T08:27:54;31.44;56.10
67165;SHT31;54093;50.014;19.984;2022-08-19T08:37:17;32.25;52.65
67165;SHT31;54093;50.014;19.984;2022-08-19T08:46:42;31.94;52.54
67165;SHT31;54093;50.014;19.984;2022-08-19T08:56:08;31.68;55.43
67165;SHT31;54093;50.014;19.984;2022-08-19T09:06:00;32.66;51.46
67165;SHT31;54093;50.014;19.984;2022-08-19T09:15:32;33.13;50.82
67165;SHT31;54093;50.014;19.984;2022-08-19T09:24:56;33.89;48.88
67165;SHT31;54093;50.014;19.984;2022-08-19T09:34:17;34.44;47.75
67165;SHT31;54093;50.014;19.984;2022-08-19T09:43:41;34.98;46.42
67165;SHT31;54093;50.014;19.984;2022-08-19T09:53:02;35.38;45.41
67165;SHT31;54093;50.014;19.984;2022-08-19T10:02:23;35.63;44.98
67165;SHT31;54093;50.014;19.984;2022-08-19T10:11:45;35.66;45.37
67165;SHT31;54093;50.014;19.984;2022-08-19T10:21:18;36.07;42.10
67165;SHT31;54093;50.014;19.984;2022-08-19T10:30:40;36.18;40.68
67165;SHT31;54093;50.014;19.984;2022-08-19T10:40:01;36.27;40.54
67165;SHT31;54093;50.014;19.984;2022-08-19T10:49:22;36.05;42.21
67165;SHT31;54093;50.014;19.984;2022-08-19T10:58:44;36.35;40.13
67165;SHT31;54093;50.014;19.984;2022-08-19T11:08:05;36.32;42.62
67165;SHT31;54093;50.014;19.984;2022-08-19T11:17:27;36.37;41.45
67165;SHT31;54093;50.014;19.984;2022-08-19T11:26:52;36.34;41.75
67165;SHT31;54093;50.014;19.984;2022-08-19T11:36:18;36.47;40.24
67165;SHT31;54093;50.014;19.984;2022-08-19T11:45:39;36.45;38.72
67165;SHT31;54093;50.014;19.984;2022-08-19T11:55:00;36.44;41.12
67165;SHT31;54093;50.014;19.984;2022-08-19T12:04:21;35.81;40.53
67165;SHT31;54093;50.014;19.984;2022-08-19T12:13:42;35.84;42.26
67165;SHT31;54093;50.014;19.984;2022-08-19T12:23:08;36.05;39.62
67165;SHT31;54093;50.014;19.984;2022-08-19T12:32:30;36.11;39.73
67165;SHT31;54093;50.014;19.984;2022-08-19T12:41:52;35.66;38.64
67165;SHT31;54093;50.014;19.984;2022-08-19T12:51:16;35.76;39.08
67165;SHT31;54093;50.014;19.984;2022-08-19T13:00:38;35.86;39.56
67165;SHT31;54093;50.014;19.984;2022-08-19T13:09:59;36.10;40.88
67165;SHT31;54093;50.014;19.984;2022-08-19T13:19:20;36.38;40.54
67165;SHT31;54093;50.014;19.984;2022-08-19T13:28:44;36.45;37.15
67165;SHT31;54093;50.014;19.984;2022-08-19T13:38:24;36.28;34.65
67165;SHT31;54093;50.014;19.984;2022-08-19T13:47:48;36.21;36.97
67165;SHT31;54093;50.014;19.984;2022-08-19T13:57:08;36.28;39.30
67165;SHT31;54093;50.014;19.984;2022-08-19T14:06:29;36.18;38.08
67165;SHT31;54093;50.014;19.984;2022-08-19T14:15:50;36.04;38.86
67165;SHT31;54093;50.014;19.984;2022-08-19T14:25:15;35.96;38.35
67165;SHT31;54093;50.014;19.984;2022-08-19T14:34:36;35.66;36.72
67165;SHT31;54093;50.014;19.984;2022-08-19T14:43:57;35.19;37.69
67165;SHT31;54093;50.014;19.984;2022-08-19T14:53:19;34.90;37.91
67165;SHT31;54093;50.014;19.984;2022-08-19T15:02:41;34.50;40.04
67165;SHT31;54093;50.014;19.984;2022-08-19T15:12:04;34.19;39.40
67165;SHT31;54093;50.014;19.984;2022-08-19T15:21:28;33.69;40.11
67165;SHT31;54093;50.014;19.984;2022-08-19T15:30:51;33.31;40.84
67165;SHT31;54093;50.014;19.984;2022-08-19T15:40:12;33.08;42.23
67165;SHT31;54093;50.014;19.984;2022-08-19T15:49:33;32.96;43.68
67165;SHT31;54093;50.014;19.984;2022-08-19T15:58:54;32.74;45.02
67165;SHT31;54093;50.014;19.984;2022-08-19T16:08:33;32.59;45.57
67165;SHT31;54093;50.014;19.984;2022-08-19T16:17:55;32.40;45.40
67165;SHT31;54093;50.014;19.984;2022-08-19T16:27:16;32.11;45.38
67165;SHT31;54093;50.014;19.984;2022-08-19T16:36:37;31.84;46.90
67165;SHT31;54093;50.014;19.984;2022-08-19T16:46:01;31.63;48.15
67165;SHT31;54093;50.014;19.984;2022-08-19T16:55:21;31.36;48.46
67165;SHT31;54093;50.014;19.984;2022-08-19T17:04:42;31.15;48.63
67165;SHT31;54093;50.014;19.984;2022-08-19T17:14:04;30.89;51.70
67165;SHT31;54093;50.014;19.984;2022-08-19T17:23:25;30.62;51.87
67165;SHT31;54093;50.014;19.984;2022-08-19T17:32:46;30.38;52.61
67165;SHT31;54093;50.014;19.984;2022-08-19T17:42:07;30.21;52.96
67165;SHT31;54093;50.014;19.984;2022-08-19T18:00:52;29.83;53.15
67165;SHT31;54093;50.014;19.984;2022-08-19T18:10:15;29.68;54.01
67165;SHT31;54093;50.014;19.984;2022-08-19T18:19:37;29.56;55.12
67165;SHT31;54093;50.014;19.984;2022-08-19T18:28:58;29.34;55.46
67165;SHT31;54093;50.014;19.984;2022-08-19T18:38:21;29.15;57.23
67165;SHT31;54093;50.014;19.984;2022-08-19T18:48:00;28.89;58.48
67165;SHT31;54093;50.014;19.984;2022-08-19T18:57:39;28.32;57.35
67165;SHT31;54093;50.014;19.984;2022-08-19T19:07:00;28.01;56.58
67165;SHT31;54093;50.014;19.984;2022-08-19T19:16:21;27.85;58.65
67165;SHT31;54093;50.014;19.984;2022-08-19T19:25:42;27.10;62.37
67165;SHT31;54093;50.014;19.984;2022-08-19T19:35:06;26.13;66.49
67165;SHT31;54093;50.014;19.984;2022-08-19T19:44:27;25.94;67.61
67165;SHT31;54093;50.014;19.984;2022-08-19T19:53:48;26.07;67.35
67165;SHT31;54093;50.014;19.984;2022-08-19T20:03:09;25.96;67.81
67165;SHT31;54093;50.014;19.984;2022-08-19T20:12:30;25.72;68.86
67165;SHT31;54093;50.014;19.984;2022-08-19T20:21:53;25.49;69.43
67165;SHT31;54093;50.014;19.984;2022-08-19T20:31:14;25.17;70.47
67165;SHT31;54093;50.014;19.984;2022-08-19T20:40:35;24.80;72.15
67165;SHT31;54093;50.014;19.984;2022-08-19T20:49:57;24.45;73.96
67165;SHT31;54093;50.014;19.984;2022-08-19T20:59:18;24.24;75.18
67165;SHT31;54093;50.014;19.984;2022-08-19T21:08:40;24.11;75.43
67165;SHT31;54093;50.014;19.984;2022-08-19T21:18:01;24.08;75.35
67165;SHT31;54093;50.014;19.984;2022-08-19T21:27:21;23.97;75.74
67165;SHT31;54093;50.014;19.984;2022-08-19T21:36:42;23.73;76.52
67165;SHT31;54093;50.014;19.984;2022-08-19T21:46:03;23.73;76.22
67165;SHT31;54093;50.014;19.984;2022-08-19T21:55:24;23.63;76.34
67165;SHT31;54093;50.014;19.984;2022-08-19T22:04:45;23.56;76.38
67165;SHT31;54093;50.014;19.984;2022-08-19T22:14:06;23.39;76.45
67165;SHT31;54093;50.014;19.984;2022-08-19T22:23:27;23.36;76.16
67165;SHT31;54093;50.014;19.984;2022-08-19T22:32:54;23.24;76.33
67165;SHT31;54093;50.014;19.984;2022-08-19T22:42:19;23.15;76.84
67165;SHT31;54093;50.014;19.984;2022-08-19T22:51:40;23.16;76.90
67165;SHT31;54093;50.014;19.984;2022-08-19T23:01:21;23.20;76.63
67165;SHT31;54093;50.014;19.984;2022-08-19T23:10:43;23.34;76.27
67165;SHT31;54093;50.014;19.984;2022-08-19T23:20:05;23.50;75.74
67165;SHT31;54093;50.014;19.984;2022-08-19T23:29:26;23.40;76.23
67165;SHT31;54093;50.014;19.984;2022-08-19T23:39:05;23.29;76.81
67165;SHT31;54093;50.014;19.984;2022-08-19T23:48:28;23.18;77.50
67165;SHT31;54093;50.014;19.984;2022-08-19T23:57:50;23.30;76.76
